Time;durP1;ratioP1;P1;durP2;ratioP2;P2;SDS_P1;SDS_P2;PMS_P1;PMS_P2;Temp;Humidity;BMP_temperature;BMP_pressure;BME280_temperature;BME280_humidity;BME280_pressure;Samples;Min_cycle;Max_cycle;Signal;HPM_P1;HPM_P2
2022/12/07 00:01:18;;;;;;;8.77;3.80;;;;;;;-143.84;96.75;44222.75;5091395;28;20635;-78
2022/12/07 00:03:47;;;;;;;6.77;2.87;;;;;;;-143.84;96.83;44230.38;5091309;28;20489;-78
2022/12/07 00:06:15;;;;;;;4.93;2.87;;;;;;;-143.84;96.38;44188.50;5091239;28;20440;-78
2022/12/07 00:08:43;;;;;;;5.10;3.50;;;;;;;-143.84;97.06;44163.75;5091434;28;20501;-78
2022/12/07 00:11:13;;;;;;;3.03;2.50;;;;;;;-143.84;97.08;44152.31;5091517;28;20444;-78
2022/12/07 00:13:40;;;;;;;8.33;3.03;;;;;;;-143.84;97.42;44093.31;5091308;28;20483;-78
2022/12/07 00:16:11;;;;;;;6.57;2.67;;;;;;;-143.84;97.11;44108.53;5090937;28;20443;-78
2022/12/07 00:18:39;;;;;;;10.10;3.03;;;;;;;-143.84;97.18;44123.78;5091165;28;20493;-78
2022/12/07 00:21:08;;;;;;;3.10;2.80;;;;;;;-143.84;97.04;44127.56;5091471;28;21042;-78
2022/12/07 00:23:35;;;;;;;5.37;3.03;;;;;;;-143.84;97.27;44163.75;5090999;28;20499;-78
2022/12/07 00:26:06;;;;;;;6.27;2.50;;;;;;;-143.84;96.90;44188.50;5091362;28;20835;-78
2022/12/07 00:28:34;;;;;;;9.13;4.00;;;;;;;-143.84;96.64;44211.34;5090957;28;20921;-78
2022/12/07 00:31:03;;;;;;;4.90;4.03;;;;;;;-143.84;96.50;44285.59;5091052;28;20527;-77
2022/12/07 00:33:32;;;;;;;6.30;5.00;;;;;;;-143.84;96.46;44285.59;5090787;28;20478;-77
2022/12/07 00:36:00;;;;;;;20.77;11.50;;;;;;;-143.84;96.24;44316.03;5090876;28;20520;-77
2022/12/07 00:38:30;;;;;;;25.67;10.60;;;;;;;-143.84;96.16;44378.88;5090472;28;20439;-77
2022/12/07 00:40:58;;;;;;;36.27;16.93;;;;;;;-143.84;96.30;44369.34;5090981;28;20435;-78
2022/12/07 00:43:26;;;;;;;24.07;12.33;;;;;;;-143.84;96.27;44340.78;5091096;28;20817;-78
2022/12/07 00:45:53;;;;;;;38.37;15.83;;;;;;;-143.84;96.21;44319.84;5090448;28;20435;-78
2022/12/07 00:48:20;;;;;;;34.30;15.07;;;;;;;-143.84;96.36;44316.03;5090906;28;20447;-78
2022/12/07 00:50:49;;;;;;;32.70;15.53;;;;;;;-143.84;96.19;44407.44;5090338;28;20487;-78
2022/12/07 00:53:16;;;;;;;3.73;3.03;;;;;;;-143.84;95.88;44441.69;5090870;28;20474;-78
2022/12/07 00:55:44;;;;;;;12.13;4.30;;;;;;;-143.84;95.99;44460.72;5090682;28;20435;-78
2022/12/07 00:58:11;;;;;;;12.07;3.23;;;;;;;-143.84;95.92;44491.19;5090472;28;20454;-77
2022/12/07 01:00:40;;;;;;;14.90;9.00;;;;;;;-143.84;95.84;44472.16;5090819;28;20493;-77
2022/12/07 01:03:09;;;;;;;12.67;4.70;;;;;;;-143.84;95.81;44531.19;5090508;28;20922;-78
2022/12/07 01:05:37;;;;;;;4.13;3.20;;;;;;;-143.84;95.70;44567.34;5090625;28;20444;-77
2022/12/07 01:08:06;;;;;;;8.97;3.80;;;;;;;-143.84;95.73;44618.75;5090494;28;20433;-77
2022/12/07 01:10:33;;;;;;;7.50;3.47;;;;;;;-143.84;95.47;44599.72;5090112;28;20449;-77
2022/12/07 01:13:01;;;;;;;6.03;3.20;;;;;;;-143.84;95.76;44533.09;5090098;28;20448;-77
2022/12/07 01:15:28;;;;;;;6.70;3.20;;;;;;;-143.84;95.57;44569.25;5089980;28;20810;-77
2022/12/07 01:17:55;;;;;;;8.30;3.80;;;;;;;-143.84;95.33;44609.22;5090021;28;20452;-77
2022/12/07 01:20:23;;;;;;;5.10;3.40;;;;;;;-143.84;95.33;44637.78;5089957;28;20527;-76
2022/12/07 01:22:50;;;;;;;4.60;2.90;;;;;;;-143.84;95.02;44712.06;5090219;28;21243;-77
2022/12/07 01:25:19;;;;;;;3.17;2.93;;;;;;;-143.84;94.73;44733.00;5089996;28;20443;-77
2022/12/07 01:27:47;;;;;;;4.30;2.77;;;;;;;-143.84;95.10;44725.38;5089796;28;20436;-77
2022/12/07 01:30:15;;;;;;;4.43;2.97;;;;;;;-143.84;94.86;44736.81;5090269;28;20424;-77
2022/12/07 01:32:42;;;;;;;3.83;2.87;;;;;;;-143.84;94.99;44744.41;5090290;28;20461;-77
2022/12/07 01:35:09;;;;;;;7.63;3.57;;;;;;;-143.84;94.79;44752.03;5089978;28;20483;-77
2022/12/07 01:37:37;;;;;;;4.30;3.20;;;;;;;-143.84;94.79;44736.81;5089800;28;20965;-78
2022/12/07 01:40:06;;;;;;;9.60;4.57;;;;;;;-143.84;94.59;44788.22;5090084;28;20453;-77
2022/12/07 01:42:35;;;;;;;5.63;3.43;;;;;;;-143.84;94.20;44824.38;5090011;28;20493;-77
2022/12/07 01:45:44;;;;;;;7.63;3.70;;;;;;;-143.84;94.33;44839.63;5090409;28;20432;-77
2022/12/07 01:48:15;;;;;;;4.87;3.57;;;;;;;-143.84;94.65;44814.88;5090016;28;20431;-77
2022/12/07 01:50:45;;;;;;;2.73;2.53;;;;;;;-143.84;94.37;44811.06;5089683;28;20487;-77
2022/12/07 01:53:13;;;;;;;4.83;3.50;;;;;;;-143.84;94.68;44778.69;5090142;28;20428;-77
2022/12/07 01:55:45;;;;;;;8.73;3.47;;;;;;;-143.84;94.74;44812.97;5089602;28;20513;-77
2022/12/07 01:58:15;;;;;;;3.90;3.27;;;;;;;-143.84;94.73;44765.34;5091039;28;20435;-77
2022/12/07 02:00:43;;;;;;;6.93;3.50;;;;;;;-143.84;94.84;44734.91;5093645;28;20934;-77
2022/12/07 02:03:15;;;;;;;7.33;3.70;;;;;;;-143.84;94.92;44742.50;5093229;28;20463;-77
2022/12/07 02:05:43;;;;;;;8.77;4.10;;;;;;;-143.84;94.68;44771.06;5093309;28;20436;-77
2022/12/07 02:08:12;;;;;;;6.87;3.40;;;;;;;-143.84;95.03;44704.44;5093423;28;20505;-77
2022/12/07 02:10:40;;;;;;;5.23;3.13;;;;;;;-143.84;95.12;44679.69;5093257;28;20471;-77
2022/12/07 02:13:12;;;;;;;6.73;3.77;;;;;;;-143.84;94.88;44748.22;5093178;28;20510;-77
2022/12/07 02:16:03;;;;;;;7.37;3.67;;;;;;;-143.84;94.93;44721.56;5093168;28;20806;-77
2022/12/07 02:18:45;;;;;;;5.67;4.20;;;;;;;-143.84;94.86;44713.94;5093107;28;20444;-77
2022/12/07 02:21:19;;;;;;;4.73;3.70;;;;;;;-143.84;94.93;44738.69;5093062;28;20442;-77
2022/12/07 02:24:15;;;;;;;6.57;4.73;;;;;;;-143.84;94.91;44725.38;5092847;28;21096;-77
2022/12/07 02:26:58;;;;;;;5.23;4.23;;;;;;;-143.84;94.65;44784.41;5092907;28;20436;-77
2022/12/07 02:29:31;;;;;;;7.50;5.03;;;;;;;-143.84;94.50;44820.56;5092937;28;20855;-77
2022/12/07 02:32:09;;;;;;;7.60;5.37;;;;;;;-143.84;94.42;44797.72;5092670;28;20448;-77
2022/12/07 02:34:45;;;;;;;5.03;4.47;;;;;;;-143.84;94.51;44807.25;5092807;28;20534;-77
2022/12/07 02:37:28;;;;;;;4.60;4.20;;;;;;;-143.84;94.26;44833.91;5092811;28;20449;-77
2022/12/07 02:40:01;;;;;;;5.10;4.33;;;;;;;-143.84;94.25;44856.75;5093064;28;20794;-77
2022/12/07 02:42:35;;;;;;;8.03;5.47;;;;;;;-143.84;93.96;44889.13;5092726;28;20451;-77
2022/12/07 02:45:06;;;;;;;11.10;5.13;;;;;;;-143.84;94.13;44896.75;5092599;28;20508;-77
2022/12/07 02:47:35;;;;;;;6.07;5.47;;;;;;;-143.84;94.19;44847.22;5092588;28;20905;-77
2022/12/07 02:50:05;;;;;;;6.20;5.60;;;;;;;-143.84;94.05;44891.03;5092454;28;20980;-77
2022/12/07 02:52:32;;;;;;;12.30;6.33;;;;;;;-143.84;93.86;44915.78;5092250;28;20447;-77
2022/12/07 02:54:59;;;;;;;6.57;5.97;;;;;;;-143.84;93.63;44908.16;5092225;28;20476;-77
2022/12/07 02:57:43;;;;;;;8.37;6.20;;;;;;;-143.84;93.57;44942.44;5092198;28;20437;-77
2022/12/07 03:00:15;;;;;;;6.40;5.80;;;;;;;-143.84;93.37;44980.53;5091428;28;20457;-77
2022/12/07 03:02:53;;;;;;;6.70;6.10;;;;;;;-143.84;93.32;44965.28;5092077;28;21284;-78
2022/12/07 03:05:38;;;;;;;6.97;6.27;;;;;;;-143.84;93.17;44963.38;5091596;28;21133;-77
2022/12/07 03:08:13;;;;;;;8.57;6.47;;;;;;;-143.84;93.15;45018.59;5090501;28;20467;-77
2022/12/07 03:10:49;;;;;;;8.67;6.20;;;;;;;-143.84;92.83;45007.19;5091996;28;20586;-77
2022/12/07 03:13:23;;;;;;;8.03;5.60;;;;;;;-143.84;92.68;45056.69;5092435;28;20451;-78
2022/12/07 03:15:59;;;;;;;8.90;6.30;;;;;;;-143.84;92.51;45047.16;5091786;28;20479;-77
2022/12/07 03:18:30;;;;;;;9.60;6.60;;;;;;;-143.84;92.46;45070.00;5092202;28;20451;-77
2022/12/07 03:21:02;;;;;;;10.00;6.20;;;;;;;-143.84;92.42;45047.16;5092254;28;20427;-77
2022/12/07 03:23:33;;;;;;;9.63;6.77;;;;;;;-143.84;92.16;45066.22;5091732;28;20973;-77
2022/12/07 03:26:02;;;;;;;8.50;6.67;;;;;;;-143.84;92.43;45070.00;5091677;28;20451;-77
2022/12/07 03:28:34;;;;;;;7.07;6.47;;;;;;;-143.84;92.37;45022.41;5091698;28;20531;-77
2022/12/07 03:31:06;;;;;;;8.03;6.43;;;;;;;-143.84;92.51;45077.63;5091582;28;20501;-77
2022/12/07 03:33:41;;;;;;;9.27;7.33;;;;;;;-143.84;92.32;45054.78;5091252;28;20464;-77
2022/12/07 03:36:13;;;;;;;7.70;6.90;;;;;;;-143.84;92.74;45041.44;5091513;28;20450;-77
2022/12/07 03:38:46;;;;;;;11.33;7.00;;;;;;;-143.84;92.91;45018.59;5091716;28;20464;-77
2022/12/07 03:41:18;;;;;;;6.73;5.73;;;;;;;-143.84;92.97;45003.38;5071638;28;20494;-77
2022/12/07 03:43:46;;;;;;;7.67;6.80;;;;;;;-143.84;93.27;44971.00;5071334;28;20437;-77
2022/12/07 03:46:21;;;;;;;7.87;7.03;;;;;;;-143.84;93.18;44990.03;5071272;28;20489;-77
2022/12/07 03:49:00;;;;;;;13.50;7.97;;;;;;;-143.84;93.43;44976.72;5071005;28;20439;-77
2022/12/07 03:51:35;;;;;;;12.60;9.07;;;;;;;-143.84;93.63;44967.19;5070722;28;20989;-77
2022/12/07 03:54:11;;;;;;;11.30;7.40;;;;;;;-143.84;93.48;45003.38;5069619;28;20486;-73
2022/12/07 03:56:39;;;;;;;11.87;7.63;;;;;;;-143.84;93.38;44991.94;5069550;28;20441;-73
2022/12/07 03:59:07;;;;;;;8.03;7.03;;;;;;;-143.84;93.63;44980.53;5069504;28;20960;-73
2022/12/07 04:01:36;;;;;;;13.00;7.13;;;;;;;-143.84;93.83;44965.28;5069627;28;20844;-73
2022/12/07 04:04:03;;;;;;;12.70;6.90;;;;;;;-143.84;93.71;44984.31;5069370;28;20445;-73
2022/12/07 04:06:30;;;;;;;10.40;6.80;;;;;;;-143.84;93.71;44953.88;5069708;28;20444;-73
2022/12/07 04:08:58;;;;;;;41.60;22.47;;;;;;;-143.84;93.87;44967.19;5069762;28;20436;-73
2022/12/07 04:11:25;;;;;;;17.57;12.37;;;;;;;-143.84;94.00;44946.25;5069437;28;20440;-73
2022/12/07 04:16:38;;;;;;;17.27;10.00;;;;;;;-143.84;93.84;44972.91;5069286;28;20427;-73
2022/12/07 04:19:05;;;;;;;20.40;13.40;;;;;;;-143.84;93.75;44955.75;5069152;28;20516;-73
2022/12/07 04:21:32;;;;;;;14.00;12.10;;;;;;;-143.84;93.59;44955.75;5069014;28;20433;-73
2022/12/07 04:23:59;;;;;;;13.13;11.63;;;;;;;-143.84;93.54;44963.38;5069251;28;20505;-73
2022/12/07 04:26:26;;;;;;;49.50;36.90;;;;;;;-143.84;93.46;44980.53;5069184;28;20502;-73
2022/12/07 04:28:53;;;;;;;31.30;28.00;;;;;;;-143.84;93.37;44982.41;5068869;28;20445;-73
2022/12/07 04:31:20;;;;;;;23.30;18.70;;;;;;;-143.84;93.54;44988.13;5069263;28;20860;-73
2022/12/07 04:33:49;;;;;;;15.80;13.93;;;;;;;-143.84;93.39;44988.13;5068859;28;20448;-73
2022/12/07 04:36:16;;;;;;;11.97;10.77;;;;;;;-143.84;93.22;44990.03;5068443;28;20472;-72
2022/12/07 04:38:43;;;;;;;12.60;11.30;;;;;;;-143.84;93.26;45009.09;5069203;28;20435;-73
2022/12/07 04:41:11;;;;;;;13.47;11.70;;;;;;;-143.84;93.35;45014.78;5068944;28;20498;-73
2022/12/07 04:43:38;;;;;;;18.30;14.30;;;;;;;-143.84;93.44;44971.00;5068685;28;21217;-73
2022/12/07 04:46:05;;;;;;;15.40;12.23;;;;;;;-143.84;93.85;44944.34;5068870;28;20451;-73
2022/12/07 04:48:32;;;;;;;15.07;10.07;;;;;;;-143.84;93.55;44995.75;5068795;28;20443;-73
2022/12/07 04:51:01;;;;;;;12.40;10.07;;;;;;;-143.84;93.08;45039.53;5068454;28;21068;-73
2022/12/07 04:53:28;;;;;;;14.63;11.87;;;;;;;-143.84;93.08;45026.22;5068905;28;20449;-73
2022/12/07 04:55:55;;;;;;;23.13;11.23;;;;;;;-143.84;93.20;44982.41;5068355;28;20488;-73
2022/12/07 04:58:22;;;;;;;17.90;12.10;;;;;;;-143.84;93.04;45001.47;5069349;28;20475;-72
2022/12/07 05:00:50;;;;;;;17.40;12.73;;;;;;;-143.84;92.89;44995.75;5069125;28;20498;-73
2022/12/07 05:03:17;;;;;;;14.33;12.43;;;;;;;-143.84;93.15;45035.75;5069476;28;20444;-73
2022/12/07 05:05:44;;;;;;;16.10;12.07;;;;;;;-143.84;92.77;45039.53;5069392;28;20497;-74
2022/12/07 05:08:13;;;;;;;11.90;10.67;;;;;;;-143.84;92.72;45045.25;5072880;28;20504;-73
2022/12/07 05:10:40;;;;;;;12.23;10.70;;;;;;;-143.84;92.81;45068.13;5069991;28;20468;-73
2022/12/07 05:13:07;;;;;;;12.80;10.27;;;;;;;-143.84;92.52;45024.31;5069034;28;20470;-73
2022/12/07 05:15:35;;;;;;;14.80;11.27;;;;;;;-143.84;92.94;45028.13;5069694;28;20527;-74
2022/12/07 05:18:03;;;;;;;16.07;12.00;;;;;;;-143.84;93.25;45009.09;5074878;28;20480;-73
2022/12/07 05:20:30;;;;;;;13.83;10.97;;;;;;;-143.84;93.49;45007.19;5108021;28;21115;-73
2022/12/07 05:22:58;;;;;;;18.13;13.67;;;;;;;-143.84;93.34;44976.72;5107879;28;20441;-71
2022/12/07 05:25:26;;;;;;;26.63;19.03;;;;;;;-143.84;93.53;44986.22;5108120;28;20445;-73
2022/12/07 05:27:55;;;;;;;22.63;18.23;;;;;;;-143.84;93.54;44991.94;5109582;28;20449;-77
2022/12/07 05:30:22;;;;;;;21.37;13.80;;;;;;;-143.84;93.85;44963.38;5109702;28;20810;-73
2022/12/07 05:32:50;;;;;;;17.13;12.73;;;;;;;-143.84;93.91;44957.66;5109911;28;21268;-74
2022/12/07 05:35:17;;;;;;;19.00;14.30;;;;;;;-143.84;93.89;44946.25;5097438;28;21025;-73
2022/12/07 05:37:45;;;;;;;17.03;12.17;;;;;;;-143.84;94.12;44938.63;5092568;28;20441;-73
2022/12/07 05:40:14;;;;;;;16.20;12.40;;;;;;;-143.84;94.41;44946.25;5092679;28;20446;-73
2022/12/07 05:42:43;;;;;;;19.93;12.20;;;;;;;-143.84;94.68;44875.78;5092499;28;20435;-73
2022/12/07 05:45:11;;;;;;;16.53;12.93;;;;;;;-143.84;94.71;44873.88;5092600;28;20538;-73
2022/12/07 05:47:39;;;;;;;19.53;12.17;;;;;;;-143.84;94.60;44811.06;5092490;28;20442;-73
2022/12/07 05:50:08;;;;;;;13.53;12.03;;;;;;;-143.84;94.96;44818.66;5092337;28;20478;-73
2022/12/07 05:52:35;;;;;;;16.03;11.80;;;;;;;-143.84;95.34;44795.81;5092721;28;20468;-73
2022/12/07 05:55:02;;;;;;;18.90;14.30;;;;;;;-143.84;95.36;44795.81;5092414;28;20481;-73
2022/12/07 05:57:29;;;;;;;25.57;19.70;;;;;;;-143.84;95.19;44746.31;5092161;28;20446;-71
2022/12/07 05:59:56;;;;;;;29.40;21.13;;;;;;;-143.84;95.35;44742.50;5092525;28;20946;-73
2022/12/07 06:02:23;;;;;;;26.10;20.90;;;;;;;-143.84;95.41;44721.56;5092388;28;20493;-73
2022/12/07 06:04:51;;;;;;;25.40;19.17;;;;;;;-143.84;95.70;44677.78;5092455;28;20430;-72
2022/12/07 06:07:18;;;;;;;26.63;19.50;;;;;;;-143.84;95.75;44683.50;5091966;28;20936;-72
2022/12/07 06:09:45;;;;;;;21.60;16.43;;;;;;;-143.84;95.65;44694.91;5092067;28;20866;-72
2022/12/07 06:14:59;;;;;;;25.63;19.63;;;;;;;-143.84;95.81;44611.13;5091840;28;20476;-72
2022/12/07 06:17:26;;;;;;;18.57;16.33;;;;;;;-143.84;96.20;44590.19;5091636;28;20451;-72
2022/12/07 06:19:53;;;;;;;26.93;14.30;;;;;;;-143.84;96.12;44590.19;5091739;28;20445;-72
2022/12/07 06:22:21;;;;;;;32.67;15.77;;;;;;;-143.84;95.70;44626.38;5091517;28;20492;-72
2022/12/07 06:24:48;;;;;;;24.60;14.97;;;;;;;-143.84;95.43;44641.59;5091610;28;20948;-73
2022/12/07 06:27:15;;;;;;;18.33;14.33;;;;;;;-143.84;95.54;44675.88;5091665;28;20449;-73
2022/12/07 06:29:42;;;;;;;18.50;13.20;;;;;;;-143.84;95.43;44698.72;5091537;28;20468;-72
2022/12/07 06:32:11;;;;;;;15.27;13.17;;;;;;;-143.84;95.17;44717.75;5091540;28;21012;-72
2022/12/07 06:34:39;;;;;;;20.87;14.20;;;;;;;-143.84;94.97;44795.81;5091413;28;20474;-72
2022/12/07 06:37:06;;;;;;;24.90;14.60;;;;;;;-143.84;94.65;44805.34;5093410;28;20439;-79
2022/12/07 06:39:33;;;;;;;19.10;15.87;;;;;;;-143.84;94.49;44862.47;5094283;28;20439;-80
2022/12/07 06:42:00;;;;;;;23.03;14.70;;;;;;;-143.84;94.05;44896.75;5093729;28;20445;-80
2022/12/07 06:44:27;;;;;;;23.10;14.07;;;;;;;-143.84;93.74;44892.94;5092992;28;20436;-80
2022/12/07 06:46:54;;;;;;;19.37;14.80;;;;;;;-143.84;93.61;44925.31;5093338;28;20541;-80
2022/12/07 06:49:23;;;;;;;22.27;14.53;;;;;;;-143.84;93.95;44856.75;5093075;28;20497;-78
2022/12/07 06:51:50;;;;;;;24.20;14.70;;;;;;;-143.84;94.00;44885.31;5093089;28;20467;-79
2022/12/07 06:54:18;;;;;;;18.30;13.20;;;;;;;-143.84;93.59;44953.88;5093399;28;20454;-79
2022/12/07 06:56:45;;;;;;;16.83;14.17;;;;;;;-143.84;92.99;44969.09;5093154;28;20471;-79
2022/12/07 06:59:12;;;;;;;19.40;13.70;;;;;;;-143.84;92.60;45031.94;5093526;28;20431;-80
2022/12/07 07:01:39;;;;;;;17.07;13.00;;;;;;;-143.84;92.23;45043.34;5093316;28;20851;-79
2022/12/07 07:04:06;;;;;;;16.27;12.80;;;;;;;-143.84;92.03;45068.13;5093112;28;20435;-79
2022/12/07 07:06:35;;;;;;;18.90;12.73;;;;;;;-143.84;91.52;45098.56;5092981;28;20448;-79
2022/12/07 07:09:02;;;;;;;22.30;14.27;;;;;;;-143.84;90.62;45064.31;5092536;28;20458;-78
2022/12/07 07:11:29;;;;;;;18.03;11.93;;;;;;;-143.84;89.90;45134.75;5092921;28;20489;-79
2022/12/07 07:14:01;;;;;;;22.90;13.67;;;;;;;-143.84;89.76;45123.34;5093161;28;20587;-79
2022/12/07 07:16:30;;;;;;;23.30;13.83;;;;;;;-143.84;89.79;45117.63;5092809;28;20559;-79
2022/12/07 07:18:57;;;;;;;18.70;11.70;;;;;;;-143.84;88.70;45174.75;5092910;28;20440;-80
2022/12/07 07:21:24;;;;;;;16.20;12.30;;;;;;;-143.84;88.99;45150.00;5092610;28;20444;-78
2022/12/07 07:23:53;;;;;;;19.57;11.93;;;;;;;-143.84;88.90;45130.94;5092715;28;20902;-78
2022/12/07 07:26:20;;;;;;;18.90;12.17;;;;;;;-143.84;87.37;45195.69;5092548;28;20435;-78
2022/12/07 07:28:47;;;;;;;11.60;10.40;;;;;;;-143.84;85.60;45186.16;5092434;28;20948;-78
2022/12/07 07:31:14;;;;;;;12.23;10.63;;;;;;;-143.84;85.40;45172.84;5092757;28;20445;-80
2022/12/07 07:33:41;;;;;;;15.20;10.10;;;;;;;-143.84;83.29;45205.22;5092850;28;20441;-79
2022/12/07 07:36:09;;;;;;;20.17;10.20;;;;;;;-143.84;82.76;45189.97;5092428;28;20586;-78
2022/12/07 07:38:36;;;;;;;19.07;10.77;;;;;;;-143.84;81.69;45209.03;5092270;28;20491;-78
2022/12/07 07:41:05;;;;;;;14.57;9.60;;;;;;;-143.84;81.01;45184.25;5092563;28;20432;-79
2022/12/07 07:43:33;;;;;;;19.67;10.27;;;;;;;-143.84;80.08;45197.59;5092039;28;20442;-78
2022/12/07 07:46:00;;;;;;;15.60;9.60;;;;;;;-143.84;79.91;45209.03;5092219;28;20489;-79
2022/12/07 07:48:27;;;;;;;14.00;9.80;;;;;;;-143.84;78.66;45193.78;5091951;28;20846;-78
2022/12/07 07:50:54;;;;;;;11.20;10.10;;;;;;;-143.84;78.02;45231.88;5091697;28;20553;-78
2022/12/07 07:53:21;;;;;;;13.30;10.47;;;;;;;-143.84;77.20;45218.53;5092262;28;20433;-79
2022/12/07 07:55:53;;;;;;;22.50;13.13;;;;;;;-143.84;76.58;45180.47;5090949;28;20475;-79
2022/12/07 07:58:22;;;;;;;18.00;11.60;;;;;;;-143.84;74.65;45228.06;5091349;28;20952;-79
2022/12/07 08:00:49;;;;;;;12.50;9.40;;;;;;;-143.84;73.49;45186.16;5091646;28;20917;-79
2022/12/07 08:03:16;;;;;;;10.03;9.03;;;;;;;-143.84;72.49;45212.84;5092157;28;20440;-79
2022/12/07 08:05:44;;;;;;;14.57;10.70;;;;;;;-143.84;71.94;45222.34;5091878;28;20439;-79
2022/12/07 08:08:11;;;;;;;13.73;9.00;;;;;;;-143.84;71.71;45186.16;5092041;28;20461;-80
2022/12/07 08:10:39;;;;;;;11.80;8.30;;;;;;;-143.84;70.62;45214.72;5091931;28;20523;-79
2022/12/07 08:13:13;;;;;;;13.37;7.77;;;;;;;-143.84;70.06;45228.06;5091633;28;20496;-78
2022/12/07 08:15:43;;;;;;;10.60;8.73;;;;;;;-143.84;70.07;45228.06;5091221;28;20505;-77
2022/12/07 08:18:11;;;;;;;12.50;8.43;;;;;;;-143.84;68.27;45195.69;5091192;28;20444;-78
2022/12/07 08:20:39;;;;;;;14.20;8.40;;;;;;;-143.84;66.96;45189.97;5091396;28;20505;-78
2022/12/07 08:23:07;;;;;;;10.67;7.57;;;;;;;-143.84;66.27;45220.44;5090982;28;20432;-79
2022/12/07 08:25:34;;;;;;;11.30;8.07;;;;;;;-143.84;65.52;45178.56;5091990;28;20439;-79
2022/12/07 08:28:02;;;;;;;9.03;7.50;;;;;;;-143.84;65.10;45235.69;5091274;28;20481;-79
2022/12/07 08:30:30;;;;;;;13.90;7.67;;;;;;;-143.84;66.10;45212.84;5091465;28;20817;-79
2022/12/07 08:32:59;;;;;;;10.50;7.93;;;;;;;-143.84;65.37;45199.50;5091171;28;20518;-78
2022/12/07 08:35:26;;;;;;;9.90;6.73;;;;;;;-143.84;63.73;45186.16;5091463;28;20481;-78
2022/12/07 08:37:54;;;;;;;11.97;7.43;;;;;;;-143.84;64.76;45203.31;5091374;28;20815;-79
2022/12/07 08:40:21;;;;;;;12.10;7.67;;;;;;;-143.84;62.84;45191.88;5091094;28;20437;-79
2022/12/07 08:42:59;;;;;;;11.67;8.60;;;;;;;-143.84;63.79;45210.94;5091103;28;20436;-79
2022/12/07 08:45:27;;;;;;;14.33;8.40;;;;;;;-143.84;63.72;45220.44;5091257;28;20844;-80
2022/12/07 08:47:58;;;;;;;12.27;7.90;;;;;;;-143.84;63.10;45207.13;5091458;28;20529;-79
2022/12/07 08:50:27;;;;;;;12.23;8.20;;;;;;;-143.84;62.83;45205.22;5090544;28;20896;-79
2022/12/07 08:52:58;;;;;;;7.37;6.67;;;;;;;-143.84;63.67;45184.25;5090848;28;20464;-77
2022/12/07 08:55:25;;;;;;;9.53;7.33;;;;;;;-143.84;64.51;45209.03;5090808;28;20489;-78
2022/12/07 08:57:53;;;;;;;7.77;6.60;;;;;;;-143.84;64.31;45218.53;5090956;28;20436;-79
2022/12/07 09:00:20;;;;;;;7.60;6.80;;;;;;;-143.84;62.96;45188.06;5090961;28;20440;-78
2022/12/07 09:02:48;;;;;;;10.57;8.00;;;;;;;-143.84;64.00;45186.16;5090967;28;20433;-78
2022/12/07 09:05:15;;;;;;;9.03;7.27;;;;;;;-143.84;65.25;45197.59;5090616;28;20444;-78
2022/12/07 09:07:47;;;;;;;10.60;8.00;;;;;;;-143.84;66.52;45191.88;5093102;28;20440;-78
2022/12/07 09:10:14;;;;;;;9.90;8.47;;;;;;;-143.84;66.50;45174.75;5094880;28;20489;-78
2022/12/07 09:12:41;;;;;;;9.43;8.50;;;;;;;-143.84;68.32;45186.16;5094876;28;21016;-77
2022/12/07 09:15:09;;;;;;;10.93;8.43;;;;;;;-143.84;68.03;45199.50;5095140;28;20496;-78
2022/12/07 09:17:37;;;;;;;13.53;8.57;;;;;;;-143.84;67.62;45174.75;5094792;28;21186;-77
2022/12/07 09:20:05;;;;;;;20.07;8.60;;;;;;;-143.84;66.17;45191.88;5094858;28;20445;-78
2022/12/07 09:22:33;;;;;;;8.67;7.77;;;;;;;-143.84;66.59;45195.69;5094226;28;20452;-78
2022/12/07 09:25:03;;;;;;;16.00;10.50;;;;;;;-143.84;66.98;45195.69;5094368;28;20430;-78
2022/12/07 09:27:30;;;;;;;16.97;8.90;;;;;;;-143.84;66.50;45189.97;5094168;28;20504;-78
2022/12/07 09:29:57;;;;;;;24.13;9.57;;;;;;;-143.84;67.41;45209.03;5094547;28;20487;-78
2022/12/07 09:32:24;;;;;;;17.23;8.40;;;;;;;-143.84;67.06;45195.69;5094295;28;20429;-78
2022/12/07 09:34:52;;;;;;;9.90;8.90;;;;;;;-143.84;67.73;45203.31;5094739;28;20429;-78
2022/12/07 09:37:19;;;;;;;11.27;8.37;;;;;;;-143.84;68.47;45214.72;5094157;28;20512;-77
2022/12/07 09:39:46;;;;;;;10.80;8.93;;;;;;;-143.84;68.48;45191.88;5094571;28;20447;-77
2022/12/07 09:42:28;;;;;;;10.80;9.50;;;;;;;-143.84;68.46;45195.69;5094314;28;20496;-77
2022/12/07 09:44:56;;;;;;;19.33;10.50;;;;;;;-143.84;68.07;45201.41;5094044;28;20470;-78
2022/12/07 09:47:23;;;;;;;12.13;7.90;;;;;;;-143.84;67.04;45180.47;5094157;28;20789;-77
2022/12/07 09:49:50;;;;;;;12.13;8.37;;;;;;;-143.84;68.20;45167.13;5094019;28;21004;-78
2022/12/07 09:52:25;;;;;;;11.40;9.40;;;;;;;-143.84;68.32;45229.97;5094202;28;20493;-78
2022/12/07 09:54:53;;;;;;;8.80;7.87;;;;;;;-143.84;67.95;45189.97;5093779;28;20500;-78
2022/12/07 09:57:29;;;;;;;12.63;8.93;;;;;;;-143.84;68.95;45212.84;5093513;28;20532;-78
2022/12/07 10:00:01;;;;;;;15.43;9.37;;;;;;;-143.84;69.57;45210.94;5093725;28;20956;-78
2022/12/07 10:02:38;;;;;;;13.07;8.97;;;;;;;-143.84;70.07;45209.03;5093858;28;20439;-77
2022/12/07 10:05:07;;;;;;;19.00;9.57;;;;;;;-143.84;69.46;45174.75;5093788;28;20852;-77
2022/12/07 10:07:35;;;;;;;12.43;8.47;;;;;;;-143.84;70.34;45174.75;5093797;28;20738;-77
2022/12/07 10:10:05;;;;;;;11.07;8.17;;;;;;;-143.84;69.94;45193.78;5093476;28;20504;-78
2022/12/07 10:12:56;;;;;;;9.77;8.77;;;;;;;-143.84;69.86;45197.59;5093869;28;20431;-78
2022/12/07 10:15:24;;;;;;;16.30;8.67;;;;;;;-143.84;70.63;45186.16;5093966;28;20447;-78
2022/12/07 10:17:53;;;;;;;13.00;8.40;;;;;;;-143.84;71.22;45209.03;5093546;28;20512;-78
2022/12/07 10:20:25;;;;;;;9.90;8.70;;;;;;;-143.84;71.96;45201.41;5093059;28;20432;-78
2022/12/07 10:22:58;;;;;;;12.17;8.70;;;;;;;-143.84;72.71;45216.63;5093506;28;20522;-78
2022/12/07 10:25:28;;;;;;;16.37;9.80;;;;;;;-143.84;73.86;45193.78;5093452;28;20432;-78
2022/12/07 10:28:02;;;;;;;11.97;9.60;;;;;;;-143.84;74.36;45207.13;5093615;28;20444;-78
2022/12/07 10:30:30;;;;;;;9.57;8.67;;;;;;;-143.84;74.44;45167.13;5093161;28;20444;-78
2022/12/07 10:32:57;;;;;;;14.83;8.60;;;;;;;-143.84;74.07;45197.59;5092839;28;20937;-77
2022/12/07 10:35:28;;;;;;;9.47;7.97;;;;;;;-143.84;73.73;45197.59;5092838;28;20436;-77
2022/12/07 10:37:57;;;;;;;11.77;8.20;;;;;;;-143.84;73.36;45207.13;5093149;28;20479;-78
2022/12/07 10:40:33;;;;;;;13.23;8.93;;;;;;;-143.84;73.76;45212.84;5092955;28;20512;-78
2022/12/07 10:43:18;;;;;;;11.10;8.47;;;;;;;-143.84;73.76;45199.50;5092943;28;20446;-78
2022/12/07 10:46:10;;;;;;;13.83;8.40;;;;;;;-143.84;74.38;45237.59;5093134;28;20440;-78
2022/12/07 10:48:46;;;;;;;9.93;8.50;;;;;;;-143.84;75.56;45201.41;5092936;28;20440;-78
2022/12/07 10:51:18;;;;;;;11.80;9.33;;;;;;;-143.84;76.21;45212.84;5092233;28;20483;-78
2022/12/07 10:53:56;;;;;;;16.37;8.87;;;;;;;-143.84;76.48;45201.41;5092720;28;20432;-78
2022/12/07 10:56:47;;;;;;;9.53;8.20;;;;;;;-143.84;77.64;45203.31;5092479;28;20460;-78
2022/12/07 10:59:35;;;;;;;15.90;10.33;;;;;;;-143.84;78.21;45214.72;5092537;28;20514;-78
2022/12/07 11:02:21;;;;;;;12.80;9.40;;;;;;;-143.84;77.02;45201.41;5092501;28;20436;-78
2022/12/07 11:05:00;;;;;;;10.80;8.43;;;;;;;-143.84;76.54;45186.16;5092644;28;20455;-78
2022/12/07 11:07:41;;;;;;;17.13;8.57;;;;;;;-143.84;76.26;45191.88;5092383;28;21014;-77
2022/12/07 11:10:15;;;;;;;10.67;8.07;;;;;;;-143.84;76.92;45191.88;5092486;28;20436;-77
2022/12/07 11:13:11;;;;;;;13.40;9.10;;;;;;;-143.84;76.99;45205.22;5092066;28;20933;-76
2022/12/07 11:15:54;;;;;;;15.67;9.03;;;;;;;-143.84;77.99;45203.31;5092527;28;20429;-77
2022/12/07 11:18:28;;;;;;;14.13;8.50;;;;;;;-143.84;79.26;45180.47;5092501;28;20977;-77
2022/12/07 11:21:07;;;;;;;19.93;9.73;;;;;;;-143.84;79.28;45159.50;5091799;28;20444;-78
2022/12/07 11:23:52;;;;;;;13.73;9.00;;;;;;;-143.84;79.44;45188.06;5091504;28;20445;-76
2022/12/07 11:26:32;;;;;;;12.77;9.13;;;;;;;-143.84;80.64;45203.31;5091997;28;20432;-76
2022/12/07 11:29:20;;;;;;;14.03;9.00;;;;;;;-143.84;81.24;45191.88;5091890;28;20439;-77